Time;durP1;ratioP1;P1;durP2;ratioP2;P2;SDS_P1;SDS_P2;PMS_P1;PMS_P2;Temp;Humidity;BMP_temperature;BMP_pressure;BME280_temperature;BME280_humidity;BME280_pressure;Samples;Min_cycle;Max_cycle;Signal;HPM_P1;HPM_P2
2021/12/25 00:00:49;;;;;;;9.27;8.38;;;6.60;99.90;;;;;;4996510;28;20022;-81
2021/12/25 00:03:16;;;;;;;8.00;7.30;;;6.70;99.90;;;;;;4995564;28;20052;-81
2021/12/25 00:05:42;;;;;;;9.02;8.00;;;6.60;99.90;;;;;;4995704;28;20092;-81
2021/12/25 00:08:07;;;;;;;9.43;8.52;;;6.60;99.90;;;;;;4996301;28;20022;-82
2021/12/25 00:10:33;;;;;;;8.35;7.55;;;6.50;99.90;;;;;;4995868;28;20045;-82
2021/12/25 00:12:59;;;;;;;8.77;7.88;;;6.50;99.90;;;;;;4995347;28;20385;-81
2021/12/25 00:15:25;;;;;;;8.10;7.40;;;6.40;99.90;;;;;;4995722;28;20562;-81
2021/12/25 00:17:51;;;;;;;8.45;7.65;;;6.40;99.90;;;;;;4995946;28;20113;-82
2021/12/25 00:20:16;;;;;;;8.88;7.97;;;6.40;99.90;;;;;;4995235;28;20054;-81
2021/12/25 00:22:42;;;;;;;9.48;8.57;;;6.40;99.90;;;;;;4996152;28;20057;-80
2021/12/25 00:25:08;;;;;;;8.57;7.78;;;6.30;99.90;;;;;;4995891;28;20041;-79
2021/12/25 00:27:52;;;;;;;9.05;8.15;;;6.30;99.90;;;;;;4995052;28;20478;-80
2021/12/25 00:30:32;;;;;;;9.35;8.45;;;6.40;99.90;;;;;;4995538;28;20022;-79
2021/12/25 00:35:23;;;;;;;9.07;8.18;;;6.30;99.90;;;;;;5013599;28;20041;-81
2021/12/25 00:37:49;;;;;;;9.35;8.43;;;6.40;99.90;;;;;;4995503;28;20026;-81
2021/12/25 00:40:17;;;;;;;7.68;6.97;;;6.30;99.90;;;;;;4995047;28;20121;-81
2021/12/25 00:42:42;;;;;;;8.20;7.40;;;6.20;99.90;;;;;;4995747;28;20090;-81
2021/12/25 00:45:09;;;;;;;7.53;6.82;;;6.20;99.90;;;;;;4995437;28;20046;-81
2021/12/25 00:47:34;;;;;;;8.05;7.28;;;6.20;99.90;;;;;;5012449;28;20033;-83
2021/12/25 00:50:00;;;;;;;7.82;7.13;;;6.30;99.90;;;;;;4995246;28;20026;-83
2021/12/25 00:52:26;;;;;;;7.47;6.78;;;6.20;99.90;;;;;;4994758;28;20045;-82
2021/12/25 00:54:51;;;;;;;7.90;6.97;;;6.20;99.90;;;;;;4994084;28;20482;-83
2021/12/25 00:57:17;;;;;;;6.90;6.20;;;6.10;99.90;;;;;;4995264;28;20049;-82
2021/12/25 00:59:43;;;;;;;7.45;6.75;;;5.90;99.90;;;;;;4995250;28;20164;-82
2021/12/25 01:02:08;;;;;;;6.60;6.00;;;5.90;99.90;;;;;;5012116;28;20030;-83
2021/12/25 01:04:34;;;;;;;6.40;5.80;;;5.80;99.90;;;;;;4994976;28;20493;-83
2021/12/25 01:06:59;;;;;;;6.88;6.28;;;5.80;99.90;;;;;;5012944;28;20030;-83
2021/12/25 01:09:25;;;;;;;6.95;6.35;;;5.80;99.90;;;;;;5011587;28;20462;-82
2021/12/25 01:11:52;;;;;;;8.02;7.28;;;5.80;99.90;;;;;;5013263;28;20458;-82
2021/12/25 01:25:33;;;;;;;8.13;7.38;;;5.60;99.90;;;;;;5013502;28;20033;-88
2021/12/25 01:28:40;;;;;;;9.20;8.27;;;5.50;99.90;;;;;;5013305;28;20065;-89
2021/12/25 01:33:34;;;;;;;10.52;8.98;;;5.60;99.90;;;;;;5012640;28;20037;-85
2021/12/25 01:36:40;;;;;;;9.63;8.73;;;5.50;99.90;;;;;;4994883;28;20022;-87
2021/12/25 01:39:10;;;;;;;10.45;9.32;;;5.40;99.90;;;;;;4984944;28;20068;-89
2021/12/25 01:49:32;;;;;;;11.50;10.40;;;5.30;99.90;;;;;;5013256;28;20049;-92
2021/12/25 01:51:58;;;;;;;11.77;10.57;;;5.30;99.90;;;;;;4994874;28;20050;-91
2021/12/25 01:54:23;;;;;;;12.38;11.07;;;5.30;99.90;;;;;;4995346;28;20032;-87
2021/12/25 01:56:49;;;;;;;13.70;12.32;;;5.30;99.90;;;;;;4994679;28;20026;-90
2021/12/25 01:59:16;;;;;;;12.90;11.65;;;5.20;99.90;;;;;;4995301;28;20018;-86
2021/12/25 02:01:42;;;;;;;12.30;11.10;;;5.10;99.90;;;;;;4995001;28;20030;-88
2021/12/25 02:04:08;;;;;;;13.32;12.02;;;5.10;99.90;;;;;;4994316;28;20090;-92
2021/12/25 02:06:33;;;;;;;14.05;12.55;;;5.10;99.90;;;;;;4994485;28;20713;-89
2021/12/25 02:08:59;;;;;;;16.50;14.60;;;5.00;99.90;;;;;;4994737;28;20363;-89
2021/12/25 02:11:25;;;;;;;18.30;14.30;;;5.10;99.90;;;;;;4994053;28;20030;-90
2021/12/25 02:13:51;;;;;;;15.93;14.32;;;5.00;99.90;;;;;;5012485;28;20072;-89
2021/12/25 02:16:20;;;;;;;14.32;12.93;;;5.00;99.90;;;;;;4994803;28;20057;-89
2021/12/25 02:21:43;;;;;;;17.27;14.48;;;4.90;99.90;;;;;;4968525;28;20040;-88
2021/12/25 02:24:11;;;;;;;16.58;14.82;;;4.90;99.90;;;;;;5012291;28;20021;-89
2021/12/25 02:26:40;;;;;;;16.70;15.00;;;4.90;99.90;;;;;;5011625;28;20030;-90
2021/12/25 02:29:06;;;;;;;16.88;15.07;;;4.90;99.90;;;;;;4995118;28;20084;-91
2021/12/25 02:31:32;;;;;;;19.35;17.05;;;4.90;99.90;;;;;;4994016;28;20482;-87
2021/12/25 02:33:57;;;;;;;19.75;16.67;;;4.80;99.90;;;;;;4993466;28;20022;-87
2021/12/25 02:36:23;;;;;;;17.63;15.73;;;4.80;99.90;;;;;;4993716;28;20493;-91
2021/12/25 02:38:49;;;;;;;18.58;16.67;;;4.80;99.90;;;;;;4994176;28;20025;-90
2021/12/25 02:41:16;;;;;;;17.17;15.40;;;4.80;99.90;;;;;;4993326;28;20165;-89
2021/12/25 02:43:44;;;;;;;23.38;18.25;;;4.90;99.90;;;;;;4993734;28;20501;-85
2021/12/25 02:46:10;;;;;;;21.10;17.00;;;4.90;99.90;;;;;;5011037;28;20034;-86
2021/12/25 02:48:37;;;;;;;17.40;15.57;;;4.80;99.90;;;;;;5011919;28;20029;-88
2021/12/25 02:51:04;;;;;;;20.52;16.13;;;4.70;99.90;;;;;;4993708;28;20084;-85
2021/12/25 02:53:30;;;;;;;18.70;15.98;;;4.80;99.90;;;;;;4992534;28;20057;-86
2021/12/25 02:55:55;;;;;;;16.70;14.80;;;4.80;99.90;;;;;;4993793;28;20029;-85
2021/12/25 02:58:21;;;;;;;16.45;14.75;;;4.80;99.90;;;;;;4993543;28;20486;-88
2021/12/25 03:00:50;;;;;;;17.73;15.88;;;4.80;99.90;;;;;;4993139;28;20025;-87
2021/12/25 03:03:16;;;;;;;19.95;16.88;;;4.80;99.90;;;;;;4993319;28;20112;-84
2021/12/25 03:05:42;;;;;;;18.05;16.15;;;4.70;99.90;;;;;;4993350;28;20065;-86
2021/12/25 03:08:10;;;;;;;18.45;16.52;;;4.60;99.90;;;;;;5010048;28;20022;-85
2021/12/25 03:10:37;;;;;;;19.33;17.27;;;4.60;99.90;;;;;;4993141;28;20377;-85
2021/12/25 03:15:45;;;;;;;21.40;16.15;;;4.60;99.90;;;;;;5010199;28;20506;-88
2021/12/25 03:18:11;;;;;;;22.13;16.83;;;4.50;99.90;;;;;;4994006;28;20437;-86
2021/12/25 03:20:40;;;;;;;18.83;16.60;;;4.60;99.90;;;;;;4993646;28;20148;-92
2021/12/25 03:23:06;;;;;;;18.77;16.35;;;4.50;99.90;;;;;;4993227;28;20026;-85
2021/12/25 03:25:31;;;;;;;18.23;15.07;;;4.60;99.90;;;;;;4995858;28;20025;-87
2021/12/25 03:27:58;;;;;;;17.05;14.52;;;4.50;99.90;;;;;;4994226;28;20044;-89
2021/12/25 03:30:25;;;;;;;16.25;14.50;;;4.50;99.90;;;;;;4994185;28;20114;-85
2021/12/25 03:32:50;;;;;;;16.80;15.00;;;4.60;99.90;;;;;;4994602;28;20022;-84
2021/12/25 03:35:16;;;;;;;19.55;15.32;;;4.50;99.90;;;;;;4993441;28;20083;-88
2021/12/25 03:37:42;;;;;;;14.90;13.30;;;4.60;99.90;;;;;;5011934;28;20026;-92
2021/12/25 03:40:08;;;;;;;15.50;13.93;;;4.50;99.90;;;;;;4994065;28;20390;-94
2021/12/25 03:42:34;;;;;;;18.52;14.25;;;4.50;99.90;;;;;;4992441;28;20061;-91
2021/12/25 03:45:03;;;;;;;17.35;14.15;;;4.60;99.90;;;;;;4993882;28;20026;-88
2021/12/25 03:47:38;;;;;;;18.67;14.55;;;4.50;99.90;;;;;;4977893;28;20468;-90
2021/12/25 03:58:20;;;;;;;16.58;14.00;;;4.20;99.90;;;;;;4996271;28;20448;-86
2021/12/25 04:00:47;;;;;;;16.77;12.55;;;4.30;99.90;;;;;;4993963;28;20048;-94
2021/12/25 04:03:25;;;;;;;15.30;11.77;;;4.20;99.90;;;;;;4993616;28;20055;-93
2021/12/25 04:05:50;;;;;;;14.13;12.60;;;4.20;99.90;;;;;;4994193;28;20029;-90
2021/12/25 04:08:20;;;;;;;11.02;9.85;;;4.20;99.90;;;;;;4993402;28;20457;-86
2021/12/25 04:10:47;;;;;;;11.82;10.25;;;4.20;99.90;;;;;;4992805;28;20018;-89
2021/12/25 04:13:15;;;;;;;11.20;9.68;;;4.20;99.90;;;;;;4993040;28;20695;-86
2021/12/25 04:15:42;;;;;;;11.43;10.18;;;4.20;99.90;;;;;;4993606;28;20033;-90
2021/12/25 04:18:08;;;;;;;15.45;11.23;;;4.20;99.90;;;;;;4992908;28;20022;-91
2021/12/25 04:20:34;;;;;;;16.35;9.85;;;4.20;99.90;;;;;;5010616;28;20038;-85
2021/12/25 04:23:05;;;;;;;11.55;8.88;;;4.20;99.90;;;;;;4992986;28;20037;-91
2021/12/25 04:25:33;;;;;;;13.68;9.93;;;4.10;99.90;;;;;;4993312;28;20029;-88
2021/12/25 04:28:06;;;;;;;10.93;8.75;;;4.10;99.90;;;;;;4992648;28;20030;-82
2021/12/25 04:50:04;;;;;;;7.30;5.80;;;3.50;99.90;;;;;;5013610;28;20406;-86
2021/12/25 05:27:03;;;;;;;3.92;3.30;;;3.40;99.90;;;;;;4952425;28;20069;-86
2021/12/25 05:41:12;;;;;;;3.38;2.58;;;3.20;99.90;;;;;;4865024;29;20040;-85
2021/12/25 06:20:30;;;;;;;3.47;2.50;;;2.30;99.90;;;;;;4930235;29;20511;-85
2021/12/25 06:22:55;;;;;;;4.28;2.80;;;2.30;99.90;;;;;;4931614;29;20119;-81
2021/12/25 06:26:07;;;;;;;2.85;2.63;;;2.30;99.90;;;;;;4915077;29;20531;-86
2021/12/25 06:45:41;;;;;;;4.38;3.10;;;2.20;99.90;;;;;;4860584;28;20674;-82
2021/12/25 06:48:07;;;;;;;7.10;3.53;;;2.10;99.90;;;;;;4971053;28;20066;-82
2021/12/25 06:50:33;;;;;;;3.90;3.45;;;2.10;99.90;;;;;;4970092;28;20383;-82
2021/12/25 06:52:58;;;;;;;4.45;3.33;;;2.10;99.90;;;;;;4969732;28;20062;-88
2021/12/25 06:55:24;;;;;;;4.90;3.13;;;2.10;99.90;;;;;;4971198;28;20062;-87
2021/12/25 06:57:55;;;;;;;3.90;3.60;;;2.10;99.90;;;;;;4973056;28;20031;-87
2021/12/25 07:00:23;;;;;;;3.88;3.40;;;2.10;99.90;;;;;;4970732;28;20130;-89
2021/12/25 07:02:49;;;;;;;3.95;3.58;;;2.20;99.90;;;;;;4971778;28;20368;-90
2021/12/25 07:05:15;;;;;;;3.05;2.83;;;2.10;99.90;;;;;;4971963;28;20030;-87
2021/12/25 07:07:43;;;;;;;5.22;3.17;;;2.10;99.90;;;;;;4970751;28;20026;-86
2021/12/25 07:10:09;;;;;;;3.83;3.42;;;2.00;99.90;;;;;;4971983;28;20026;-83
2021/12/25 07:12:37;;;;;;;6.53;3.35;;;2.00;99.90;;;;;;4970423;28;20041;-85
2021/12/25 07:15:07;;;;;;;5.10;2.80;;;1.90;99.90;;;;;;4970087;28;20077;-81
2021/12/25 07:17:48;;;;;;;7.72;3.45;;;1.90;99.90;;;;;;4970135;28;20023;-89
2021/12/25 07:20:15;;;;;;;4.33;2.80;;;1.80;99.90;;;;;;4956843;28;20047;-87
2021/12/25 07:23:03;;;;;;;5.30;3.50;;;1.70;99.90;;;;;;5009614;28;20068;-90
2021/12/25 07:30:09;;;;;;;5.60;3.10;;;1.60;99.90;;;;;;5008902;28;20473;-86
2021/12/25 07:33:36;;;;;;;3.78;3.13;;;1.50;99.90;;;;;;5002885;28;20027;-88
2021/12/25 07:36:58;;;;;;;3.63;3.22;;;1.50;99.90;;;;;;4987972;28;20031;-84
2021/12/25 07:39:45;;;;;;;3.25;2.95;;;1.50;99.90;;;;;;4944865;29;20066;-82
2021/12/25 07:42:12;;;;;;;5.22;3.20;;;1.40;99.90;;;;;;4930270;29;20399;-81
2021/12/25 07:44:37;;;;;;;4.00;3.50;;;1.40;99.90;;;;;;4933507;29;20047;-82
2021/12/25 07:47:08;;;;;;;3.47;3.15;;;1.40;99.90;;;;;;4929728;29;20622;-82
2021/12/25 07:49:35;;;;;;;5.35;3.92;;;1.40;99.90;;;;;;4913691;29;20048;-82
2021/12/25 07:52:00;;;;;;;5.32;3.33;;;1.40;99.90;;;;;;4931248;28;20054;-88
2021/12/25 07:54:26;;;;;;;3.95;3.30;;;1.30;99.90;;;;;;4953077;28;20069;-85
2021/12/25 07:56:52;;;;;;;4.47;3.72;;;1.30;99.90;;;;;;4969264;28;20035;-85
2021/12/25 07:59:17;;;;;;;3.95;3.55;;;1.30;99.90;;;;;;4953245;28;20035;-85
2021/12/25 08:01:43;;;;;;;3.72;3.20;;;1.30;99.90;;;;;;4969199;28;20472;-84
2021/12/25 08:04:10;;;;;;;5.45;3.70;;;1.20;99.90;;;;;;4953862;28;20036;-82
2021/12/25 08:06:35;;;;;;;7.28;4.07;;;1.20;99.90;;;;;;4921159;29;20059;-80
2021/12/25 08:09:03;;;;;;;6.85;3.55;;;1.20;99.90;;;;;;4949007;29;20074;-81
2021/12/25 08:11:30;;;;;;;4.28;3.22;;;1.10;99.90;;;;;;4973893;28;20574;-80
2021/12/25 08:13:57;;;;;;;5.03;3.90;;;1.00;99.90;;;;;;4991480;28;20521;-80
2021/12/25 08:16:23;;;;;;;4.63;3.70;;;0.90;99.90;;;;;;4974787;28;20030;-79
2021/12/25 08:18:48;;;;;;;4.78;3.47;;;0.90;99.90;;;;;;4974772;28;20080;-78
2021/12/25 08:21:14;;;;;;;3.45;3.15;;;0.90;99.90;;;;;;4975618;28;20022;-79
2021/12/25 08:23:40;;;;;;;4.43;3.25;;;0.90;99.90;;;;;;4977236;28;20037;-80
2021/12/25 08:26:08;;;;;;;6.03;3.72;;;0.90;99.90;;;;;;4976193;28;20034;-78
2021/12/25 08:28:34;;;;;;;3.10;2.85;;;0.90;99.90;;;;;;4975883;28;20031;-80
2021/12/25 08:31:03;;;;;;;3.55;3.25;;;0.80;99.90;;;;;;4975257;28;20058;-82
2021/12/25 08:33:28;;;;;;;4.75;3.30;;;0.70;99.90;;;;;;4974883;28;20022;-83
2021/12/25 08:35:55;;;;;;;4.50;3.90;;;0.60;99.90;;;;;;4976451;28;20431;-84
2021/12/25 08:38:21;;;;;;;3.15;2.50;;;0.60;99.90;;;;;;4972206;28;20037;-83
2021/12/25 08:40:47;;;;;;;2.72;2.50;;;0.60;99.90;;;;;;4975838;28;20030;-84
2021/12/25 08:43:15;;;;;;;4.00;3.00;;;0.60;99.90;;;;;;4966679;28;20037;-84
2021/12/25 08:45:47;;;;;;;3.10;2.53;;;0.60;99.90;;;;;;4973240;28;20041;-83
2021/12/25 08:48:24;;;;;;;4.15;2.85;;;0.50;99.90;;;;;;4976258;28;20044;-85
2021/12/25 08:50:53;;;;;;;4.13;2.72;;;0.50;99.90;;;;;;4976880;28;20025;-84
2021/12/25 08:53:22;;;;;;;4.30;2.30;;;0.50;99.90;;;;;;4976066;28;20192;-86
2021/12/25 08:55:49;;;;;;;4.50;3.28;;;0.50;99.90;;;;;;4994576;28;20018;-86
2021/12/25 08:58:19;;;;;;;2.78;2.53;;;0.50;99.90;;;;;;4976366;28;20026;-84
2021/12/25 09:00:47;;;;;;;2.67;2.08;;;0.40;99.90;;;;;;4993483;28;20031;-85
2021/12/25 09:03:14;;;;;;;4.45;2.35;;;0.40;99.90;;;;;;4993579;28;20023;-84
2021/12/25 09:05:39;;;;;;;3.50;2.40;;;0.50;99.90;;;;;;4993792;28;20105;-84
2021/12/25 09:08:05;;;;;;;3.08;2.38;;;0.40;99.90;;;;;;4975507;28;20177;-85
2021/12/25 09:10:35;;;;;;;1.85;1.75;;;0.40;99.90;;;;;;4975525;28;20101;-85
2021/12/25 09:13:01;;;;;;;3.10;2.30;;;0.30;99.90;;;;;;4975908;28;20038;-84
2021/12/25 09:15:26;;;;;;;2.97;2.33;;;0.40;99.90;;;;;;4974489;28;20027;-82
2021/12/25 09:17:52;;;;;;;4.32;1.95;;;0.40;99.90;;;;;;4975795;28;20037;-81
2021/12/25 09:20:21;;;;;;;70.85;5.88;;;0.40;99.90;;;;;;4991645;28;20030;-79
2021/12/25 09:22:47;;;;;;;2.08;1.50;;;0.40;99.90;;;;;;4972274;28;20051;-81
2021/12/25 09:25:13;;;;;;;3.30;1.90;;;0.40;99.90;;;;;;4972362;28;20113;-79
2021/12/25 09:27:38;;;;;;;3.08;2.00;;;0.40;99.90;;;;;;4971452;28;20146;-80
2021/12/25 09:30:05;;;;;;;2.05;1.70;;;0.40;99.90;;;;;;4967414;28;20034;-82
2021/12/25 09:32:31;;;;;;;1.90;1.70;;;0.40;99.90;;;;;;4972417;28;20170;-76
2021/12/25 09:35:00;;;;;;;2.38;1.50;;;0.40;99.90;;;;;;4972115;28;20046;-78
2021/12/25 09:37:26;;;;;;;2.05;1.45;;;0.40;99.90;;;;;;4970125;28;20054;-73
2021/12/25 09:39:52;;;;;;;1.50;1.38;;;0.40;99.90;;;;;;4966955;28;20596;-78
2021/12/25 09:42:19;;;;;;;2.72;1.60;;;0.40;99.90;;;;;;4952515;28;20031;-76
2021/12/25 09:44:45;;;;;;;2.65;1.60;;;0.40;99.90;;;;;;4952194;28;20122;-77
2021/12/25 09:47:10;;;;;;;2.08;1.50;;;0.40;99.90;;;;;;4953652;28;20146;-75
2021/12/25 09:49:36;;;;;;;1.52;1.42;;;0.40;99.90;;;;;;4969482;28;20077;-78
2021/12/25 09:52:03;;;;;;;1.42;1.30;;;0.40;99.90;;;;;;4971322;28;20030;-77
2021/12/25 09:54:29;;;;;;;3.38;1.50;;;0.40;99.90;;;;;;4971624;28;20030;-79
2021/12/25 09:56:57;;;;;;;1.38;1.27;;;0.40;99.90;;;;;;4967557;28;20109;-78
2021/12/25 09:59:23;;;;;;;1.92;1.50;;;0.40;99.90;;;;;;4972959;28;20019;-76
2021/12/25 10:01:53;;;;;;;2.50;1.70;;;0.40;99.90;;;;;;4970357;28;20126;-77
2021/12/25 10:04:42;;;;;;;1.40;1.30;;;0.40;99.90;;;;;;4967397;28;20419;-76
2021/12/25 10:07:11;;;;;;;2.17;1.60;;;0.40;99.90;;;;;;4972703;28;20027;-78
2021/12/25 10:09:37;;;;;;;2.03;1.58;;;0.40;99.90;;;;;;4970808;28;20031;-79
2021/12/25 10:12:05;;;;;;;1.40;1.20;;;0.40;99.90;;;;;;4971135;28;20027;-74
2021/12/25 10:14:31;;;;;;;1.65;1.30;;;0.50;99.90;;;;;;4967994;28;20031;-78
2021/12/25 10:16:57;;;;;;;2.17;1.50;;;0.40;99.90;;;;;;4965870;28;20122;-74
2021/12/25 10:19:27;;;;;;;1.45;1.35;;;0.50;99.90;;;;;;4982385;28;20121;-84
2021/12/25 10:22:04;;;;;;;2.05;1.38;;;0.40;99.90;;;;;;4975621;28;20090;-80
2021/12/25 10:24:30;;;;;;;2.90;1.60;;;0.40;99.90;;;;;;4950683;29;20039;-81
2021/12/25 10:27:14;;;;;;;1.92;1.42;;;0.50;99.90;;;;;;4951614;28;20233;-79
2021/12/25 10:29:40;;;;;;;2.22;1.60;;;0.50;99.90;;;;;;4951547;28;20019;-77
2021/12/25 10:32:22;;;;;;;4.95;1.30;;;0.50;99.90;;;;;;4959767;28;20391;-80
2021/12/25 10:34:50;;;;;;;1.70;1.60;;;0.50;99.90;;;;;;4974626;28;20032;-81
2021/12/25 10:37:17;;;;;;;2.22;1.42;;;0.50;99.90;;;;;;4972319;28;20026;-80
2021/12/25 10:39:44;;;;;;;1.40;1.30;;;0.40;99.90;;;;;;4969344;28;20027;-78
2021/12/25 10:42:15;;;;;;;2.00;1.42;;;0.40;99.90;;;;;;4970986;28;20062;-78
2021/12/25 10:44:50;;;;;;;2.50;1.20;;;0.40;99.90;;;;;;4967668;28;20034;-81
2021/12/25 10:47:21;;;;;;;1.67;1.30;;;0.50;99.90;;;;;;4970363;28;20121;-81
2021/12/25 10:49:53;;;;;;;1.77;1.40;;;0.50;99.90;;;;;;4969525;28;20061;-81
2021/12/25 10:52:23;;;;;;;1.52;1.38;;;0.50;99.90;;;;;;4968833;28;20029;-91
2021/12/25 10:54:53;;;;;;;1.30;1.20;;;0.50;99.90;;;;;;4971141;28;20062;-81
2021/12/25 10:57:58;;;;;;;1.70;1.50;;;0.60;99.90;;;;;;4969811;28;20113;-81
2021/12/25 11:00:34;;;;;;;2.22;1.40;;;0.50;99.90;;;;;;4928806;29;20046;-80
2021/12/25 11:03:08;;;;;;;1.30;1.20;;;0.50;99.90;;;;;;4961386;28;20046;-80
2021/12/25 11:05:45;;;;;;;1.40;1.20;;;0.60;99.90;;;;;;4967214;28;20125;-81
2021/12/25 11:08:15;;;;;;;2.10;1.80;;;0.60;99.90;;;;;;4967576;28;20027;-79
2021/12/25 11:10:56;;;;;;;1.40;1.30;;;0.60;99.90;;;;;;4967002;28;20397;-78
2021/12/25 11:13:32;;;;;;;4.07;1.60;;;0.60;99.90;;;;;;4969984;28;20035;-80
2021/12/25 11:16:04;;;;;;;1.73;1.30;;;0.60;99.90;;;;;;4947877;28;20038;-79
2021/12/25 11:18:47;;;;;;;1.63;1.27;;;0.60;99.90;;;;;;4948604;28;20039;-80
2021/12/25 11:21:13;;;;;;;1.70;1.40;;;0.60;99.90;;;;;;4960131;28;20162;-82
2021/12/25 11:23:39;;;;;;;3.15;1.60;;;0.60;99.90;;;;;;4969029;28;20121;-81
2021/12/25 11:26:04;;;;;;;2.13;1.45;;;0.60;99.90;;;;;;4969347;28;20030;-79
2021/12/25 11:28:30;;;;;;;1.42;1.33;;;0.60;99.90;;;;;;4986844;28;20033;-79
2021/12/25 11:30:56;;;;;;;2.72;1.40;;;0.60;99.90;;;;;;4969183;28;20255;-81
2021/12/25 11:33:21;;;;;;;1.17;1.10;;;0.60;99.90;;;;;;4968370;28;20026;-79
2021/12/25 11:35:47;;;;;;;1.40;1.20;;;0.60;99.90;;;;;;4986472;28;20094;-80
2021/12/25 11:38:13;;;;;;;1.63;1.30;;;0.70;99.90;;;;;;4970178;28;20080;-78
2021/12/25 11:40:47;;;;;;;1.38;1.27;;;0.70;99.90;;;;;;4972556;28;20022;-82
2021/12/25 11:43:13;;;;;;;1.30;1.20;;;0.70;99.90;;;;;;4972630;28;20121;-80
2021/12/25 11:45:41;;;;;;;1.85;1.33;;;0.70;99.90;;;;;;4974172;28;20085;-79
2021/12/25 11:48:18;;;;;;;1.30;1.20;;;0.70;99.90;;;;;;4990470;28;20390;-80
2021/12/25 11:50:48;;;;;;;3.70;1.40;;;0.70;99.90;;;;;;4971194;28;20097;-76
2021/12/25 11:53:27;;;;;;;2.65;1.40;;;0.70;99.90;;;;;;4992089;28;20514;-83
2021/12/25 11:58:53;;;;;;;1.67;1.10;;;0.70;99.90;;;;;;4974049;28;20042;-82
2021/12/25 12:01:38;;;;;;;2.50;1.30;;;0.80;99.90;;;;;;4974256;28;20027;-85
2021/12/25 12:04:10;;;;;;;1.35;1.20;;;0.80;99.90;;;;;;4972838;28;20035;-86
2021/12/25 12:06:48;;;;;;;1.65;1.17;;;0.80;99.90;;;;;;4965457;28;20054;-83
2021/12/25 12:09:20;;;;;;;1.48;1.38;;;0.80;99.90;;;;;;4972059;28;20030;-82
2021/12/25 12:12:05;;;;;;;1.30;1.20;;;0.90;99.90;;;;;;4970646;28;20076;-83
2021/12/25 12:14:32;;;;;;;1.40;1.30;;;0.90;99.90;;;;;;4993120;28;20296;-83
2021/12/25 12:17:13;;;;;;;1.88;1.30;;;0.90;99.90;;;;;;4993661;28;20104;-83
2021/12/25 12:19:45;;;;;;;1.73;1.27;;;0.90;99.90;;;;;;4988930;28;20113;-85
2021/12/25 12:22:32;;;;;;;3.65;1.30;;;0.90;99.90;;;;;;4958406;28;20056;-83
2021/12/25 12:27:40;;;;;;;1.33;1.13;;;0.90;99.90;;;;;;4991391;28;20192;-80
2021/12/25 12:30:33;;;;;;;1.45;1.20;;;0.90;99.90;;;;;;4980376;28;20088;-81
2021/12/25 12:33:22;;;;;;;1.60;1.40;;;0.90;99.90;;;;;;5011577;28;20056;-83
2021/12/25 12:36:01;;;;;;;1.95;1.30;;;1.00;99.90;;;;;;4970644;28;20034;-91
2021/12/25 12:41:42;;;;;;;1.30;1.20;;;0.90;99.90;;;;;;4994468;28;20022;-86
2021/12/25 12:45:01;;;;;;;1.00;0.88;;;0.90;99.90;;;;;;4954004;28;20042;-89
2021/12/25 12:48:14;;;;;;;2.20;1.27;;;0.90;99.90;;;;;;4974337;28;20105;-88
2021/12/25 12:51:18;;;;;;;1.85;1.30;;;0.90;99.90;;;;;;4992364;28;20157;-87
2021/12/25 12:53:44;;;;;;;1.60;1.45;;;0.90;99.90;;;;;;4953044;28;20041;-80
2021/12/25 12:56:10;;;;;;;3.08;1.50;;;0.90;99.90;;;;;;4956347;28;20092;-82
2021/12/25 12:58:36;;;;;;;1.70;1.60;;;0.90;99.90;;;;;;4972534;28;20026;-82
2021/12/25 13:01:11;;;;;;;1.67;1.40;;;0.90;99.90;;;;;;4991284;28;20042;-87
2021/12/25 13:03:37;;;;;;;1.77;1.42;;;0.90;99.90;;;;;;4972523;28;20030;-89
2021/12/25 13:06:11;;;;;;;1.40;1.30;;;1.00;99.90;;;;;;4991200;28;20030;-83
2021/12/25 13:08:38;;;;;;;1.70;1.30;;;0.90;99.90;;;;;;4969961;28;20035;-82
2021/12/25 13:11:14;;;;;;;2.97;1.60;;;1.00;99.90;;;;;;4994522;28;20031;-82
2021/12/25 13:13:51;;;;;;;1.85;1.40;;;0.90;99.90;;;;;;4978710;28;20496;-82
2021/12/25 13:16:17;;;;;;;2.75;2.35;;;0.90;99.90;;;;;;4960124;28;20057;-82
2021/12/25 13:18:46;;;;;;;1.83;1.30;;;1.00;99.90;;;;;;4977742;28;20022;-83
2021/12/25 13:21:18;;;;;;;1.80;1.50;;;1.00;99.90;;;;;;4992975;28;20042;-83
2021/12/25 13:23:50;;;;;;;1.98;1.58;;;0.90;99.90;;;;;;4974233;28;20647;-82
2021/12/25 13:26:19;;;;;;;2.35;1.40;;;1.00;99.90;;;;;;4975074;28;20075;-84
2021/12/25 13:28:49;;;;;;;2.33;1.80;;;1.00;99.90;;;;;;4970857;28;20404;-87
2021/12/25 13:31:19;;;;;;;3.05;1.48;;;1.00;99.90;;;;;;4955717;28;20194;-82
2021/12/25 13:33:57;;;;;;;1.70;1.60;;;0.90;99.90;;;;;;4957715;28;20031;-81
2021/12/25 13:36:28;;;;;;;3.13;1.90;;;0.90;99.90;;;;;;4965507;28;20031;-83
2021/12/25 13:39:15;;;;;;;3.70;1.70;;;0.90;99.90;;;;;;4990265;28;20030;-82
2021/12/25 13:41:52;;;;;;;2.67;1.90;;;0.90;99.90;;;;;;4989126;28;20030;-80
2021/12/25 13:44:29;;;;;;;1.83;1.63;;;0.90;99.90;;;;;;4973856;28;20019;-82
2021/12/25 13:47:13;;;;;;;1.60;1.50;;;0.90;99.90;;;;;;4974561;28;20026;-82
2021/12/25 13:49:47;;;;;;;3.97;1.60;;;0.90;99.90;;;;;;4988440;28;20041;-80
2021/12/25 13:52:19;;;;;;;2.67;1.70;;;0.90;99.90;;;;;;4986817;28;20027;-80
2021/12/25 13:54:56;;;;;;;2.05;1.63;;;0.90;99.90;;;;;;4974259;28;20037;-79
2021/12/25 13:57:24;;;;;;;2.72;1.80;;;0.90;99.90;;;;;;4974772;28;20030;-83
2021/12/25 13:59:52;;;;;;;1.88;1.55;;;0.90;99.90;;;;;;4974976;28;20019;-83
2021/12/25 14:02:20;;;;;;;3.65;1.80;;;0.90;99.90;;;;;;4972260;28;20516;-81
2021/12/25 14:04:47;;;;;;;1.65;1.55;;;0.80;99.90;;;;;;4990282;28;20022;-78
2021/12/25 14:07:26;;;;;;;2.38;2.13;;;0.80;99.90;;;;;;4991344;28;20499;-82
2021/12/25 14:10:02;;;;;;;2.15;1.42;;;0.90;99.90;;;;;;4973915;28;20018;-80
2021/12/25 14:12:29;;;;;;;3.03;1.48;;;0.80;99.90;;;;;;5004484;28;20034;-82
2021/12/25 14:14:57;;;;;;;7.15;2.47;;;0.80;99.90;;;;;;4979287;28;20383;-79
2021/12/25 14:17:23;;;;;;;1.55;1.30;;;0.80;99.90;;;;;;4973078;28;20030;-81
2021/12/25 14:20:02;;;;;;;2.88;1.60;;;0.80;99.90;;;;;;4957602;28;20030;-79
2021/12/25 14:22:27;;;;;;;2.35;1.60;;;0.80;99.90;;;;;;4972437;28;20034;-84
2021/12/25 14:24:53;;;;;;;2.17;1.58;;;0.80;99.90;;;;;;4972810;28;20124;-81
2021/12/25 14:27:22;;;;;;;2.88;1.90;;;0.80;99.90;;;;;;4974242;28;20161;-82
2021/12/25 14:30:02;;;;;;;2.90;1.50;;;0.80;99.90;;;;;;4972589;28;20053;-86
2021/12/25 14:32:30;;;;;;;5.00;1.90;;;0.70;99.90;;;;;;4973615;28;20088;-79
2021/12/25 14:34:56;;;;;;;2.38;1.60;;;0.70;99.90;;;;;;4991827;28;20022;-81
2021/12/25 14:37:34;;;;;;;2.38;1.63;;;0.70;99.90;;;;;;4973589;28;20035;-78
2021/12/25 14:40:07;;;;;;;2.10;1.50;;;0.70;99.90;;;;;;4990685;28;20042;-82
2021/12/25 14:42:57;;;;;;;3.30;1.73;;;0.70;99.90;;;;;;4974432;28;20030;-86
2021/12/25 14:45:24;;;;;;;1.65;1.55;;;0.70;99.90;;;;;;4989473;28;20227;-84
2021/12/25 14:47:59;;;;;;;2.10;1.52;;;0.70;99.90;;;;;;4991411;28;20061;-84
2021/12/25 14:50:33;;;;;;;3.22;1.65;;;0.60;99.90;;;;;;4969750;28;20089;-91
2021/12/25 14:53:06;;;;;;;2.83;1.70;;;0.60;99.90;;;;;;4954658;28;20066;-80
2021/12/25 14:56:20;;;;;;;2.20;1.50;;;0.60;99.90;;;;;;4954613;28;20494;-84
2021/12/25 14:58:51;;;;;;;3.85;1.70;;;0.60;99.90;;;;;;4940266;28;20042;-79
2021/12/25 15:02:00;;;;;;;3.57;1.77;;;0.60;99.90;;;;;;4972555;28;20054;-92
2021/12/25 15:04:28;;;;;;;2.28;1.67;;;0.60;99.90;;;;;;4973066;28;20014;-79
2021/12/25 15:06:57;;;;;;;4.63;1.85;;;0.60;99.90;;;;;;4973860;28;20043;-77
2021/12/25 15:09:28;;;;;;;5.97;1.77;;;0.50;99.90;;;;;;4971929;28;20026;-79
2021/12/25 15:12:05;;;;;;;3.85;2.50;;;0.50;99.90;;;;;;4992637;28;20038;-81
2021/12/25 15:14:33;;;;;;;2.70;1.92;;;0.50;99.90;;;;;;4992289;28;20853;-80
2021/12/25 15:17:02;;;;;;;1.85;1.55;;;0.50;99.90;;;;;;4993035;28;20532;-86
2021/12/25 15:19:43;;;;;;;2.20;2.00;;;0.40;99.90;;;;;;4990009;28;20037;-87
2021/12/25 15:22:19;;;;;;;3.42;2.03;;;0.40;99.90;;;;;;4973126;28;20050;-83
2021/12/25 15:25:07;;;;;;;3.90;2.00;;;0.40;99.90;;;;;;4972528;28;20032;-81
2021/12/25 15:27:41;;;;;;;3.35;1.90;;;0.40;99.90;;;;;;4972921;28;20030;-82
2021/12/25 15:30:17;;;;;;;2.72;1.70;;;0.30;99.90;;;;;;4990914;28;20120;-82
2021/12/25 15:32:48;;;;;;;1.85;1.67;;;0.30;99.90;;;;;;4972833;28;20109;-81
2021/12/25 15:35:17;;;;;;;2.72;1.58;;;0.20;99.90;;;;;;4971379;28;20038;-74
2021/12/25 15:37:46;;;;;;;3.00;1.95;;;0.20;99.90;;;;;;4990313;28;20501;-76
2021/12/25 15:40:16;;;;;;;3.72;2.35;;;0.20;99.90;;;;;;4989311;28;20374;-74
2021/12/25 15:42:42;;;;;;;2.88;2.08;;;0.20;99.90;;;;;;4987451;28;20478;-79
2021/12/25 15:45:08;;;;;;;5.25;2.08;;;0.20;99.90;;;;;;4989674;28;20109;-79
2021/12/25 15:47:34;;;;;;;2.67;2.03;;;0.10;99.90;;;;;;4971361;28;20101;-76
2021/12/25 15:50:00;;;;;;;2.47;1.77;;;0.10;99.90;;;;;;4971666;28;20022;-76
2021/12/25 15:52:26;;;;;;;3.35;2.03;;;0.10;99.90;;;;;;4972750;28;20086;-77
2021/12/25 15:54:51;;;;;;;3.63;1.83;;;0.10;99.90;;;;;;4975131;28;20023;-75
2021/12/25 15:57:17;;;;;;;2.67;2.03;;;0.10;99.90;;;;;;4972594;28;20503;-76
2021/12/25 15:59:44;;;;;;;3.05;1.98;;;0.10;99.90;;;;;;4979909;28;20054;-74
2021/12/25 16:02:16;;;;;;;2.88;2.47;;;0.00;99.90;;;;;;4989691;28;20033;-78